sensor_id;sensor_type;location;lat;lon;timestamp;temperature;humidity
51793;DHT22;37850;53.178;6.376;2023-06-14T00:00:31;16.90;84.40
51793;DHT22;37850;53.178;6.376;2023-06-14T00:02:57;16.80;84.70
51793;DHT22;37850;53.178;6.376;2023-06-14T00:05:23;16.70;84.60
51793;DHT22;37850;53.178;6.376;2023-06-14T00:07:49;16.70;85.10
51793;DHT22;37850;53.178;6.376;2023-06-14T00:10:19;16.70;86.10
51793;DHT22;37850;53.178;6.376;2023-06-14T00:12:45;16.60;85.60
51793;DHT22;37850;53.178;6.376;2023-06-14T00:15:10;16.60;86.60
51793;DHT22;37850;53.178;6.376;2023-06-14T00:17:36;16.50;86.60
51793;DHT22;37850;53.178;6.376;2023-06-14T00:20:05;16.40;88.20
51793;DHT22;37850;53.178;6.376;2023-06-14T00:22:33;16.30;87.70
51793;DHT22;37850;53.178;6.376;2023-06-14T00:24:59;16.30;88.10
51793;DHT22;37850;53.178;6.376;2023-06-14T00:27:25;16.30;88.10
51793;DHT22;37850;53.178;6.376;2023-06-14T00:29:51;16.20;88.30
51793;DHT22;37850;53.178;6.376;2023-06-14T00:32:18;16.20;88.80
51793;DHT22;37850;53.178;6.376;2023-06-14T00:34:44;16.20;88.90
51793;DHT22;37850;53.178;6.376;2023-06-14T00:37:10;16.10;90.20
51793;DHT22;37850;53.178;6.376;2023-06-14T00:39:35;16.10;89.70
51793;DHT22;37850;53.178;6.376;2023-06-14T00:42:01;16.10;89.90
51793;DHT22;37850;53.178;6.376;2023-06-14T00:44:27;16.00;90.00
51793;DHT22;37850;53.178;6.376;2023-06-14T00:46:52;15.90;90.10
51793;DHT22;37850;53.178;6.376;2023-06-14T00:49:19;15.90;90.40
51793;DHT22;37850;53.178;6.376;2023-06-14T00:51:45;15.90;90.40
51793;DHT22;37850;53.178;6.376;2023-06-14T00:54:11;15.80;90.50
51793;DHT22;37850;53.178;6.376;2023-06-14T00:56:37;15.80;90.50
51793;DHT22;37850;53.178;6.376;2023-06-14T00:59:04;15.80;90.70
51793;DHT22;37850;53.178;6.376;2023-06-14T01:01:30;15.80;90.90
51793;DHT22;37850;53.178;6.376;2023-06-14T01:03:58;15.80;90.90
51793;DHT22;37850;53.178;6.376;2023-06-14T01:07:23;15.90;91.10
51793;DHT22;37850;53.178;6.376;2023-06-14T01:09:37;15.70;91.50
51793;DHT22;37850;53.178;6.376;2023-06-14T01:12:24;15.70;91.30
51793;DHT22;37850;53.178;6.376;2023-06-14T01:14:52;15.70;91.40
51793;DHT22;37850;53.178;6.376;2023-06-14T01:17:19;15.70;91.40
51793;DHT22;37850;53.178;6.376;2023-06-14T01:19:46;15.70;91.70
51793;DHT22;37850;53.178;6.376;2023-06-14T01:22:12;15.70;91.60
51793;DHT22;37850;53.178;6.376;2023-06-14T01:24:38;15.60;91.80
51793;DHT22;37850;53.178;6.376;2023-06-14T01:27:05;15.60;92.00
51793;DHT22;37850;53.178;6.376;2023-06-14T01:29:33;15.60;92.10
51793;DHT22;37850;53.178;6.376;2023-06-14T01:32:02;15.60;92.10
51793;DHT22;37850;53.178;6.376;2023-06-14T01:34:27;15.50;92.10
51793;DHT22;37850;53.178;6.376;2023-06-14T01:36:54;15.50;92.40
51793;DHT22;37850;53.178;6.376;2023-06-14T01:39:23;15.50;92.60
51793;DHT22;37850;53.178;6.376;2023-06-14T01:41:49;15.50;92.60
51793;DHT22;37850;53.178;6.376;2023-06-14T01:44:17;15.40;92.90
51793;DHT22;37850;53.178;6.376;2023-06-14T01:46:44;15.40;92.80
51793;DHT22;37850;53.178;6.376;2023-06-14T01:49:11;15.30;93.00
51793;DHT22;37850;53.178;6.376;2023-06-14T01:51:36;15.30;93.20
51793;DHT22;37850;53.178;6.376;2023-06-14T01:54:02;15.30;93.30
51793;DHT22;37850;53.178;6.376;2023-06-14T01:56:28;15.30;93.30
51793;DHT22;37850;53.178;6.376;2023-06-14T01:58:54;15.30;93.50
51793;DHT22;37850;53.178;6.376;2023-06-14T02:01:20;15.20;93.70
51793;DHT22;37850;53.178;6.376;2023-06-14T02:03:47;15.20;93.70
51793;DHT22;37850;53.178;6.376;2023-06-14T02:06:13;15.30;94.10
51793;DHT22;37850;53.178;6.376;2023-06-14T02:08:41;15.10;94.10
51793;DHT22;37850;53.178;6.376;2023-06-14T02:11:08;15.10;94.10
51793;DHT22;37850;53.178;6.376;2023-06-14T02:13:34;15.10;94.60
51793;DHT22;37850;53.178;6.376;2023-06-14T02:16:00;15.10;94.70
51793;DHT22;37850;53.178;6.376;2023-06-14T02:18:26;15.00;94.80
51793;DHT22;37850;53.178;6.376;2023-06-14T02:20:55;15.10;95.00
51793;DHT22;37850;53.178;6.376;2023-06-14T02:23:21;15.00;95.00
51793;DHT22;37850;53.178;6.376;2023-06-14T02:25:47;15.00;95.40
51793;DHT22;37850;53.178;6.376;2023-06-14T02:28:13;14.90;95.80
51793;DHT22;37850;53.178;6.376;2023-06-14T02:30:38;14.90;96.30
51793;DHT22;37850;53.178;6.376;2023-06-14T02:33:04;14.80;96.40
51793;DHT22;37850;53.178;6.376;2023-06-14T02:35:30;14.80;97.10
51793;DHT22;37850;53.178;6.376;2023-06-14T02:37:56;14.70;97.30
51793;DHT22;37850;53.178;6.376;2023-06-14T02:40:22;14.70;97.50
51793;DHT22;37850;53.178;6.376;2023-06-14T02:42:48;14.70;98.30
51793;DHT22;37850;53.178;6.376;2023-06-14T02:45:14;14.60;98.50
51793;DHT22;37850;53.178;6.376;2023-06-14T02:47:40;14.60;98.60
51793;DHT22;37850;53.178;6.376;2023-06-14T02:50:06;14.60;98.80
51793;DHT22;37850;53.178;6.376;2023-06-14T02:52:33;14.60;99.40
51793;DHT22;37850;53.178;6.376;2023-06-14T02:54:58;14.50;99.60
51793;DHT22;37850;53.178;6.376;2023-06-14T02:57:24;14.60;99.90
51793;DHT22;37850;53.178;6.376;2023-06-14T02:59:50;14.60;99.90
51793;DHT22;37850;53.178;6.376;2023-06-14T03:02:17;14.50;99.90
51793;DHT22;37850;53.178;6.376;2023-06-14T03:04:42;14.60;99.90
51793;DHT22;37850;53.178;6.376;2023-06-14T03:07:10;14.50;99.90
51793;DHT22;37850;53.178;6.376;2023-06-14T03:09:39;14.60;99.90
51793;DHT22;37850;53.178;6.376;2023-06-14T03:12:05;14.50;99.90
51793;DHT22;37850;53.178;6.376;2023-06-14T03:14:35;14.40;99.90
51793;DHT22;37850;53.178;6.376;2023-06-14T03:17:02;14.40;99.90
51793;DHT22;37850;53.178;6.376;2023-06-14T03:19:27;14.50;99.90
51793;DHT22;37850;53.178;6.376;2023-06-14T03:21:53;14.40;99.90
51793;DHT22;37850;53.178;6.376;2023-06-14T03:24:23;14.40;99.90
51793;DHT22;37850;53.178;6.376;2023-06-14T03:26:49;14.40;99.90
51793;DHT22;37850;53.178;6.376;2023-06-14T03:29:14;14.40;99.90
51793;DHT22;37850;53.178;6.376;2023-06-14T03:31:57;14.40;99.90
51793;DHT22;37850;53.178;6.376;2023-06-14T03:34:23;14.50;99.90
51793;DHT22;37850;53.178;6.376;2023-06-14T03:36:50;14.50;99.90
51793;DHT22;37850;53.178;6.376;2023-06-14T03:39:15;14.50;99.90
51793;DHT22;37850;53.178;6.376;2023-06-14T03:41:41;14.50;99.90
51793;DHT22;37850;53.178;6.376;2023-06-14T03:44:07;14.50;99.90
51793;DHT22;37850;53.178;6.376;2023-06-14T03:46:32;14.50;99.90
51793;DHT22;37850;53.178;6.376;2023-06-14T03:48:58;14.50;99.90
51793;DHT22;37850;53.178;6.376;2023-06-14T03:51:24;14.50;99.90
51793;DHT22;37850;53.178;6.376;2023-06-14T03:53:50;14.50;99.90
51793;DHT22;37850;53.178;6.376;2023-06-14T03:56:16;14.50;99.90
51793;DHT22;37850;53.178;6.376;2023-06-14T03:58:42;14.50;99.90
51793;DHT22;37850;53.178;6.376;2023-06-14T04:01:07;14.50;99.90
51793;DHT22;37850;53.178;6.376;2023-06-14T04:03:33;14.50;99.90
51793;DHT22;37850;53.178;6.376;2023-06-14T04:05:59;14.50;99.90
51793;DHT22;37850;53.178;6.376;2023-06-14T04:08:26;14.50;99.90
51793;DHT22;37850;53.178;6.376;2023-06-14T04:10:51;14.60;99.90
51793;DHT22;37850;53.178;6.376;2023-06-14T04:13:17;14.60;99.90
51793;DHT22;37850;53.178;6.376;2023-06-14T04:15:43;14.60;99.90
51793;DHT22;37850;53.178;6.376;2023-06-14T04:18:12;14.60;99.90
51793;DHT22;37850;53.178;6.376;2023-06-14T04:20:38;14.70;99.90
51793;DHT22;37850;53.178;6.376;2023-06-14T04:23:15;14.70;99.90
51793;DHT22;37850;53.178;6.376;2023-06-14T04:25:43;14.70;99.90
51793;DHT22;37850;53.178;6.376;2023-06-14T04:28:14;14.70;99.90
51793;DHT22;37850;53.178;6.376;2023-06-14T04:30:44;14.70;99.90
51793;DHT22;37850;53.178;6.376;2023-06-14T04:33:10;14.80;99.90
51793;DHT22;37850;53.178;6.376;2023-06-14T04:35:36;14.80;99.90
51793;DHT22;37850;53.178;6.376;2023-06-14T04:38:06;15.10;99.90
51793;DHT22;37850;53.178;6.376;2023-06-14T04:40:35;15.40;99.90
51793;DHT22;37850;53.178;6.376;2023-06-14T04:43:08;15.70;99.90
51793;DHT22;37850;53.178;6.376;2023-06-14T04:45:34;16.00;99.90
51793;DHT22;37850;53.178;6.376;2023-06-14T04:47:59;16.30;99.90
51793;DHT22;37850;53.178;6.376;2023-06-14T04:50:26;16.60;99.90
51793;DHT22;37850;53.178;6.376;2023-06-14T04:52:52;16.90;99.90
51793;DHT22;37850;53.178;6.376;2023-06-14T04:55:19;17.20;99.90
51793;DHT22;37850;53.178;6.376;2023-06-14T04:57:45;17.40;99.90
51793;DHT22;37850;53.178;6.376;2023-06-14T05:00:11;17.70;99.90
51793;DHT22;37850;53.178;6.376;2023-06-14T05:02:37;17.90;99.90
51793;DHT22;37850;53.178;6.376;2023-06-14T05:05:04;18.20;99.90
51793;DHT22;37850;53.178;6.376;2023-06-14T05:07:32;18.40;99.90
51793;DHT22;37850;53.178;6.376;2023-06-14T05:09:59;18.60;99.90
51793;DHT22;37850;53.178;6.376;2023-06-14T05:12:25;18.90;99.90
51793;DHT22;37850;53.178;6.376;2023-06-14T05:14:51;19.10;99.90
51793;DHT22;37850;53.178;6.376;2023-06-14T05:17:16;19.20;99.10
51793;DHT22;37850;53.178;6.376;2023-06-14T05:19:42;19.40;98.90
51793;DHT22;37850;53.178;6.376;2023-06-14T05:22:08;19.60;98.50
51793;DHT22;37850;53.178;6.376;2023-06-14T05:24:34;19.80;97.80
51793;DHT22;37850;53.178;6.376;2023-06-14T05:27:00;19.90;97.30
51793;DHT22;37850;53.178;6.376;2023-06-14T05:29:26;19.90;96.90
51793;DHT22;37850;53.178;6.376;2023-06-14T05:31:52;20.00;96.80
51793;DHT22;37850;53.178;6.376;2023-06-14T05:34:18;19.80;96.70
51793;DHT22;37850;53.178;6.376;2023-06-14T05:36:44;19.60;96.80
51793;DHT22;37850;53.178;6.376;2023-06-14T05:39:10;19.30;97.20
51793;DHT22;37850;53.178;6.376;2023-06-14T05:41:36;18.90;97.60
51793;DHT22;37850;53.178;6.376;2023-06-14T05:44:02;18.70;97.80
51793;DHT22;37850;53.178;6.376;2023-06-14T05:46:27;18.50;98.20
51793;DHT22;37850;53.178;6.376;2023-06-14T05:48:54;18.30;98.70
51793;DHT22;37850;53.178;6.376;2023-06-14T05:51:20;18.10;99.00
51793;DHT22;37850;53.178;6.376;2023-06-14T05:53:47;18.00;99.40
51793;DHT22;37850;53.178;6.376;2023-06-14T05:56:13;18.00;99.90
51793;DHT22;37850;53.178;6.376;2023-06-14T05:58:39;17.90;99.90
51793;DHT22;37850;53.178;6.376;2023-06-14T06:01:05;17.90;99.90
51793;DHT22;37850;53.178;6.376;2023-06-14T06:03:31;18.00;99.90
51793;DHT22;37850;53.178;6.376;2023-06-14T06:05:58;18.30;99.90
51793;DHT22;37850;53.178;6.376;2023-06-14T06:08:24;18.70;99.90
51793;DHT22;37850;53.178;6.376;2023-06-14T06:10:50;19.10;99.90
51793;DHT22;37850;53.178;6.376;2023-06-14T06:13:16;19.50;98.90
51793;DHT22;37850;53.178;6.376;2023-06-14T06:15:42;19.80;98.10
51793;DHT22;37850;53.178;6.376;2023-06-14T06:18:07;20.10;97.70
51793;DHT22;37850;53.178;6.376;2023-06-14T06:20:33;20.40;97.10
51793;DHT22;37850;53.178;6.376;2023-06-14T06:22:59;20.50;96.40
51793;DHT22;37850;53.178;6.376;2023-06-14T06:25:25;20.50;96.00
51793;DHT22;37850;53.178;6.376;2023-06-14T06:27:53;20.30;96.00
51793;DHT22;37850;53.178;6.376;2023-06-14T06:30:20;20.10;96.40
51793;DHT22;37850;53.178;6.376;2023-06-14T06:32:46;19.90;96.60
51793;DHT22;37850;53.178;6.376;2023-06-14T06:35:12;19.60;96.80
51793;DHT22;37850;53.178;6.376;2023-06-14T06:37:42;19.50;96.90
51793;DHT22;37850;53.178;6.376;2023-06-14T06:40:08;19.30;97.20
51793;DHT22;37850;53.178;6.376;2023-06-14T06:42:34;19.20;97.60
51793;DHT22;37850;53.178;6.376;2023-06-14T06:45:00;19.10;97.70
51793;DHT22;37850;53.178;6.376;2023-06-14T06:47:26;19.10;97.80
51793;DHT22;37850;53.178;6.376;2023-06-14T06:49:51;19.10;98.20
51793;DHT22;37850;53.178;6.376;2023-06-14T06:52:17;19.00;97.90
51793;DHT22;37850;53.178;6.376;2023-06-14T06:54:43;19.00;98.10
51793;DHT22;37850;53.178;6.376;2023-06-14T06:57:09;19.00;98.00
51793;DHT22;37850;53.178;6.376;2023-06-14T06:59:36;19.00;97.70
51793;DHT22;37850;53.178;6.376;2023-06-14T07:02:03;19.00;97.70
51793;DHT22;37850;53.178;6.376;2023-06-14T07:04:29;19.00;97.60
51793;DHT22;37850;53.178;6.376;2023-06-14T07:06:55;19.00;97.60
51793;DHT22;37850;53.178;6.376;2023-06-14T07:09:21;19.10;97.70
51793;DHT22;37850;53.178;6.376;2023-06-14T07:11:47;19.10;97.60
51793;DHT22;37850;53.178;6.376;2023-06-14T07:14:12;19.10;97.70
51793;DHT22;37850;53.178;6.376;2023-06-14T07:16:38;19.20;97.40
51793;DHT22;37850;53.178;6.376;2023-06-14T07:19:04;19.30;97.50
51793;DHT22;37850;53.178;6.376;2023-06-14T07:21:30;19.40;97.30
51793;DHT22;37850;53.178;6.376;2023-06-14T07:23:56;19.50;97.20
51793;DHT22;37850;53.178;6.376;2023-06-14T07:26:22;19.60;97.30
51793;DHT22;37850;53.178;6.376;2023-06-14T07:28:48;19.80;97.00
51793;DHT22;37850;53.178;6.376;2023-06-14T07:31:17;19.90;97.20
51793;DHT22;37850;53.178;6.376;2023-06-14T07:33:45;20.10;97.10
51793;DHT22;37850;53.178;6.376;2023-06-14T07:36:11;20.30;96.50
51793;DHT22;37850;53.178;6.376;2023-06-14T07:38:37;20.40;96.10
51793;DHT22;37850;53.178;6.376;2023-06-14T07:41:03;20.50;96.40
51793;DHT22;37850;53.178;6.376;2023-06-14T07:43:29;20.60;96.30
51793;DHT22;37850;53.178;6.376;2023-06-14T07:45:54;20.70;95.50
51793;DHT22;37850;53.178;6.376;2023-06-14T07:48:20;20.80;96.30
51793;DHT22;37850;53.178;6.376;2023-06-14T07:50:46;20.90;96.40
51793;DHT22;37850;53.178;6.376;2023-06-14T07:53:12;21.00;96.30
51793;DHT22;37850;53.178;6.376;2023-06-14T07:55:38;21.10;95.40
51793;DHT22;37850;53.178;6.376;2023-06-14T07:58:06;21.20;95.80
51793;DHT22;37850;53.178;6.376;2023-06-14T08:00:32;21.30;95.80
51793;DHT22;37850;53.178;6.376;2023-06-14T08:02:57;21.40;95.40
51793;DHT22;37850;53.178;6.376;2023-06-14T08:05:28;21.50;95.50
51793;DHT22;37850;53.178;6.376;2023-06-14T08:07:55;21.60;94.60
51793;DHT22;37850;53.178;6.376;2023-06-14T08:10:21;21.70;94.80
51793;DHT22;37850;53.178;6.376;2023-06-14T08:12:47;21.80;93.90
51793;DHT22;37850;53.178;6.376;2023-06-14T08:15:16;21.80;93.20
51793;DHT22;37850;53.178;6.376;2023-06-14T08:17:45;21.80;93.30
51793;DHT22;37850;53.178;6.376;2023-06-14T08:20:11;21.80;93.40
51793;DHT22;37850;53.178;6.376;2023-06-14T08:22:37;21.90;93.80
51793;DHT22;37850;53.178;6.376;2023-06-14T08:25:06;22.00;93.60
51793;DHT22;37850;53.178;6.376;2023-06-14T08:27:32;22.10;93.90
51793;DHT22;37850;53.178;6.376;2023-06-14T08:29:58;22.20;93.40
51793;DHT22;37850;53.178;6.376;2023-06-14T08:32:23;22.30;93.40
51793;DHT22;37850;53.178;6.376;2023-06-14T08:34:49;22.30;93.20
51793;DHT22;37850;53.178;6.376;2023-06-14T08:37:15;22.40;93.40
51793;DHT22;37850;53.178;6.376;2023-06-14T08:39:41;22.50;93.30
51793;DHT22;37850;53.178;6.376;2023-06-14T08:42:07;22.50;92.30
51793;DHT22;37850;53.178;6.376;2023-06-14T08:44:34;22.50;92.70
51793;DHT22;37850;53.178;6.376;2023-06-14T08:47:00;22.60;92.40
51793;DHT22;37850;53.178;6.376;2023-06-14T08:49:27;22.70;91.90
51793;DHT22;37850;53.178;6.376;2023-06-14T08:51:57;22.70;91.40
51793;DHT22;37850;53.178;6.376;2023-06-14T08:54:25;22.70;91.00
51793;DHT22;37850;53.178;6.376;2023-06-14T08:56:53;22.70;90.40
51793;DHT22;37850;53.178;6.376;2023-06-14T08:59:27;22.70;90.90
51793;DHT22;37850;53.178;6.376;2023-06-14T09:01:53;22.70;91.50
51793;DHT22;37850;53.178;6.376;2023-06-14T09:04:23;22.80;90.80
51793;DHT22;37850;53.178;6.376;2023-06-14T09:06:55;22.80;90.40
51793;DHT22;37850;53.178;6.376;2023-06-14T09:09:22;22.80;90.10
51793;DHT22;37850;53.178;6.376;2023-06-14T09:11:51;22.90;89.30
51793;DHT22;37850;53.178;6.376;2023-06-14T09:14:22;22.90;89.50
51793;DHT22;37850;53.178;6.376;2023-06-14T09:16:52;22.90;90.20
51793;DHT22;37850;53.178;6.376;2023-06-14T09:19:25;23.00;90.30
51793;DHT22;37850;53.178;6.376;2023-06-14T09:21:52;23.10;89.60
51793;DHT22;37850;53.178;6.376;2023-06-14T09:24:18;23.10;89.70
51793;DHT22;37850;53.178;6.376;2023-06-14T09:26:47;23.10;88.00
51793;DHT22;37850;53.178;6.376;2023-06-14T09:29:12;23.10;88.20
51793;DHT22;37850;53.178;6.376;2023-06-14T09:31:38;23.20;89.40
51793;DHT22;37850;53.178;6.376;2023-06-14T09:34:05;23.20;89.10
51793;DHT22;37850;53.178;6.376;2023-06-14T09:36:31;23.30;90.00
51793;DHT22;37850;53.178;6.376;2023-06-14T09:39:02;23.40;89.30
51793;DHT22;37850;53.178;6.376;2023-06-14T09:44:02;23.50;89.60
51793;DHT22;37850;53.178;6.376;2023-06-14T09:46:29;23.50;86.80
51793;DHT22;37850;53.178;6.376;2023-06-14T09:48:56;23.60;88.90
51793;DHT22;37850;53.178;6.376;2023-06-14T09:51:26;23.60;88.80
51793;DHT22;37850;53.178;6.376;2023-06-14T09:53:53;23.60;89.50
51793;DHT22;37850;53.178;6.376;2023-06-14T09:56:27;23.70;89.30
51793;DHT22;37850;53.178;6.376;2023-06-14T09:58:55;23.70;88.80
51793;DHT22;37850;53.178;6.376;2023-06-14T10:01:23;23.70;85.90
51793;DHT22;37850;53.178;6.376;2023-06-14T10:04:01;23.70;87.10
51793;DHT22;37850;53.178;6.376;2023-06-14T10:06:29;23.70;88.90
51793;DHT22;37850;53.178;6.376;2023-06-14T10:08:57;23.70;85.60
51793;DHT22;37850;53.178;6.376;2023-06-14T10:11:28;23.70;86.60
51793;DHT22;37850;53.178;6.376;2023-06-14T10:13:58;23.70;86.80
51793;DHT22;37850;53.178;6.376;2023-06-14T10:19:25;23.60;84.20
51793;DHT22;37850;53.178;6.376;2023-06-14T10:22:14;23.60;84.60
51793;DHT22;37850;53.178;6.376;2023-06-14T10:24:42;23.70;83.80
51793;DHT22;37850;53.178;6.376;2023-06-14T10:27:09;23.70;85.30
51793;DHT22;37850;53.178;6.376;2023-06-14T10:30:04;23.70;83.60
51793;DHT22;37850;53.178;6.376;2023-06-14T10:32:31;23.70;83.30
51793;DHT22;37850;53.178;6.376;2023-06-14T10:35:07;23.70;85.10
51793;DHT22;37850;53.178;6.376;2023-06-14T10:37:34;23.70;85.10
51793;DHT22;37850;53.178;6.376;2023-06-14T10:40:01;23.80;86.00
51793;DHT22;37850;53.178;6.376;2023-06-14T10:42:31;23.80;85.70
51793;DHT22;37850;53.178;6.376;2023-06-14T10:44:57;23.90;84.90
51793;DHT22;37850;53.178;6.376;2023-06-14T10:47:31;23.90;85.70
51793;DHT22;37850;53.178;6.376;2023-06-14T10:50:04;24.00;84.10
51793;DHT22;37850;53.178;6.376;2023-06-14T10:52:33;24.00;84.00
51793;DHT22;37850;53.178;6.376;2023-06-14T10:55:09;24.00;84.40
51793;DHT22;37850;53.178;6.376;2023-06-14T10:57:37;24.00;83.20
51793;DHT22;37850;53.178;6.376;2023-06-14T11:00:07;24.00;82.60
51793;DHT22;37850;53.178;6.376;2023-06-14T11:05:51;23.90;82.90
51793;DHT22;37850;53.178;6.376;2023-06-14T11:11:13;23.90;83.90
51793;DHT22;37850;53.178;6.376;2023-06-14T11:13:41;23.90;84.30
51793;DHT22;37850;53.178;6.376;2023-06-14T11:16:14;24.00;84.10
51793;DHT22;37850;53.178;6.376;2023-06-14T11:18:41;24.00;81.40
51793;DHT22;37850;53.178;6.376;2023-06-14T11:21:07;24.00;81.90
51793;DHT22;37850;53.178;6.376;2023-06-14T11:23:35;24.00;81.70
51793;DHT22;37850;53.178;6.376;2023-06-14T11:26:00;24.00;83.30
51793;DHT22;37850;53.178;6.376;2023-06-14T11:28:40;24.00;82.90
51793;DHT22;37850;53.178;6.376;2023-06-14T11:31:06;24.10;82.90
51793;DHT22;37850;53.178;6.376;2023-06-14T11:33:32;24.20;83.50
51793;DHT22;37850;53.178;6.376;2023-06-14T11:35:58;24.30;83.40
51793;DHT22;37850;53.178;6.376;2023-06-14T11:38:26;24.30;83.40
51793;DHT22;37850;53.178;6.376;2023-06-14T11:40:52;24.30;82.30
51793;DHT22;37850;53.178;6.376;2023-06-14T11:43:18;24.40;82.40
51793;DHT22;37850;53.178;6.376;2023-06-14T11:45:48;24.40;82.40
51793;DHT22;37850;53.178;6.376;2023-06-14T11:48:14;24.40;82.70
51793;DHT22;37850;53.178;6.376;2023-06-14T11:50:40;24.50;82.10
51793;DHT22;37850;53.178;6.376;2023-06-14T11:53:06;24.50;83.80
51793;DHT22;37850;53.178;6.376;2023-06-14T11:55:38;24.60;83.40
51793;DHT22;37850;53.178;6.376;2023-06-14T11:58:05;24.50;83.00
51793;DHT22;37850;53.178;6.376;2023-06-14T12:00:31;24.60;83.00
51793;DHT22;37850;53.178;6.376;2023-06-14T12:02:57;24.60;80.40
51793;DHT22;37850;53.178;6.376;2023-06-14T12:05:24;24.60;80.00
51793;DHT22;37850;53.178;6.376;2023-06-14T12:07:58;24.50;80.30
51793;DHT22;37850;53.178;6.376;2023-06-14T12:10:26;24.40;78.90
51793;DHT22;37850;53.178;6.376;2023-06-14T12:12:57;24.40;80.70
51793;DHT22;37850;53.178;6.376;2023-06-14T12:15:24;24.40;81.50
51793;DHT22;37850;53.178;6.376;2023-06-14T12:17:49;24.40;80.70
51793;DHT22;37850;53.178;6.376;2023-06-14T12:20:16;24.40;79.90
51793;DHT22;37850;53.178;6.376;2023-06-14T12:22:51;24.50;79.80
51793;DHT22;37850;53.178;6.376;2023-06-14T12:25:32;24.50;79.50
51793;DHT22;37850;53.178;6.376;2023-06-14T12:28:07;24.60;78.30
51793;DHT22;37850;53.178;6.376;2023-06-14T12:30:34;24.60;78.40
51793;DHT22;37850;53.178;6.376;2023-06-14T12:33:00;24.60;78.20
51793;DHT22;37850;53.178;6.376;2023-06-14T12:35:26;24.50;79.90
51793;DHT22;37850;53.178;6.376;2023-06-14T12:37:53;24.50;80.40
51793;DHT22;37850;53.178;6.376;2023-06-14T12:40:19;24.60;79.60
51793;DHT22;37850;53.178;6.376;2023-06-14T12:42:45;24.60;80.00
51793;DHT22;37850;53.178;6.376;2023-06-14T12:45:12;24.70;81.00
51793;DHT22;37850;53.178;6.376;2023-06-14T12:47:39;24.80;79.70
51793;DHT22;37850;53.178;6.376;2023-06-14T12:50:06;24.80;78.50
51793;DHT22;37850;53.178;6.376;2023-06-14T12:52:32;24.90;77.70
51793;DHT22;37850;53.178;6.376;2023-06-14T12:55:03;24.80;77.30
51793;DHT22;37850;53.178;6.376;2023-06-14T12:57:29;24.80;76.40
51793;DHT22;37850;53.178;6.376;2023-06-14T12:59:54;24.80;75.40
51793;DHT22;37850;53.178;6.376;2023-06-14T13:02:20;24.80;76.90
51793;DHT22;37850;53.178;6.376;2023-06-14T13:04:47;24.80;76.40
51793;DHT22;37850;53.178;6.376;2023-06-14T13:07:13;24.80;75.90
51793;DHT22;37850;53.178;6.376;2023-06-14T13:09:41;24.70;75.60
51793;DHT22;37850;53.178;6.376;2023-06-14T13:12:08;24.70;75.50
51793;DHT22;37850;53.178;6.376;2023-06-14T13:14:34;24.70;77.10
51793;DHT22;37850;53.178;6.376;2023-06-14T13:16:59;24.80;78.60
51793;DHT22;37850;53.178;6.376;2023-06-14T13:19:25;24.80;78.70
51793;DHT22;37850;53.178;6.376;2023-06-14T13:21:51;24.90;77.50
51793;DHT22;37850;53.178;6.376;2023-06-14T13:24:17;24.90;75.80
51793;DHT22;37850;53.178;6.376;2023-06-14T13:26:43;24.90;74.90
51793;DHT22;37850;53.178;6.376;2023-06-14T13:29:08;24.80;75.90
51793;DHT22;37850;53.178;6.376;2023-06-14T13:31:34;24.80;75.60
51793;DHT22;37850;53.178;6.376;2023-06-14T13:34:00;24.80;75.70
51793;DHT22;37850;53.178;6.376;2023-06-14T13:36:26;24.80;76.10
51793;DHT22;37850;53.178;6.376;2023-06-14T13:38:51;24.80;76.90
51793;DHT22;37850;53.178;6.376;2023-06-14T13:41:18;24.80;77.70
51793;DHT22;37850;53.178;6.376;2023-06-14T13:43:44;24.90;76.90
51793;DHT22;37850;53.178;6.376;2023-06-14T13:46:09;24.90;76.60
51793;DHT22;37850;53.178;6.376;2023-06-14T13:48:35;25.00;77.30
51793;DHT22;37850;53.178;6.376;2023-06-14T13:51:01;25.00;76.30
51793;DHT22;37850;53.178;6.376;2023-06-14T13:53:29;25.00;74.80
51793;DHT22;37850;53.178;6.376;2023-06-14T13:55:55;25.00;75.00
51793;DHT22;37850;53.178;6.376;2023-06-14T13:58:20;25.00;75.00
51793;DHT22;37850;53.178;6.376;2023-06-14T14:00:46;25.00;76.60
51793;DHT22;37850;53.178;6.376;2023-06-14T14:03:13;25.00;76.20
51793;DHT22;37850;53.178;6.376;2023-06-14T14:05:38;25.10;76.00
51793;DHT22;37850;53.178;6.376;2023-06-14T14:08:04;25.10;76.80
51793;DHT22;37850;53.178;6.376;2023-06-14T14:10:30;25.20;75.30
51793;DHT22;37850;53.178;6.376;2023-06-14T14:12:56;25.30;74.70
51793;DHT22;37850;53.178;6.376;2023-06-14T14:15:22;25.30;75.30
51793;DHT22;37850;53.178;6.376;2023-06-14T14:17:48;25.30;74.30
51793;DHT22;37850;53.178;6.376;2023-06-14T14:20:13;25.30;75.10
51793;DHT22;37850;53.178;6.376;2023-06-14T14:22:44;25.30;74.90
51793;DHT22;37850;53.178;6.376;2023-06-14T14:25:10;25.20;75.30
51793;DHT22;37850;53.178;6.376;2023-06-14T14:27:39;25.10;76.50
51793;DHT22;37850;53.178;6.376;2023-06-14T14:30:06;25.10;77.20
51793;DHT22;37850;53.178;6.376;2023-06-14T14:32:31;25.20;74.50
51793;DHT22;37850;53.178;6.376;2023-06-14T14:34:58;25.10;73.50
51793;DHT22;37850;53.178;6.376;2023-06-14T14:37:23;25.00;73.90
51793;DHT22;37850;53.178;6.376;2023-06-14T14:39:49;25.00;74.80
51793;DHT22;37850;53.178;6.376;2023-06-14T14:42:15;25.00;74.90
51793;DHT22;37850;53.178;6.376;2023-06-14T14:44:40;25.00;76.10
51793;DHT22;37850;53.178;6.376;2023-06-14T14:47:06;25.00;76.10
51793;DHT22;37850;53.178;6.376;2023-06-14T14:49:32;24.90;76.30
51793;DHT22;37850;53.178;6.376;2023-06-14T14:51:58;24.90;76.20
51793;DHT22;37850;53.178;6.376;2023-06-14T14:54:24;25.00;76.30
51793;DHT22;37850;53.178;6.376;2023-06-14T14:56:51;25.00;74.00
51793;DHT22;37850;53.178;6.376;2023-06-14T14:59:16;25.10;74.70
51793;DHT22;37850;53.178;6.376;2023-06-14T15:01:43;25.10;74.60
51793;DHT22;37850;53.178;6.376;2023-06-14T15:04:09;25.10;74.70
51793;DHT22;37850;53.178;6.376;2023-06-14T15:06:34;25.10;74.70
51793;DHT22;37850;53.178;6.376;2023-06-14T15:09:01;25.00;75.00
51793;DHT22;37850;53.178;6.376;2023-06-14T15:11:27;25.00;75.40
51793;DHT22;37850;53.178;6.376;2023-06-14T15:13:53;25.00;75.60
51793;DHT22;37850;53.178;6.376;2023-06-14T15:16:19;25.10;75.20
51793;DHT22;37850;53.178;6.376;2023-06-14T15:18:45;25.10;75.50
51793;DHT22;37850;53.178;6.376;2023-06-14T15:21:11;25.20;75.80
51793;DHT22;37850;53.178;6.376;2023-06-14T15:23:37;25.20;74.30
51793;DHT22;37850;53.178;6.376;2023-06-14T15:26:03;25.30;73.90
51793;DHT22;37850;53.178;6.376;2023-06-14T15:28:28;25.20;74.20
51793;DHT22;37850;53.178;6.376;2023-06-14T15:30:55;25.10;73.90
51793;DHT22;37850;53.178;6.376;2023-06-14T15:33:21;25.00;74.50
51793;DHT22;37850;53.178;6.376;2023-06-14T15:35:47;25.00;75.20
51793;DHT22;37850;53.178;6.376;2023-06-14T15:38:13;25.00;75.20
51793;DHT22;37850;53.178;6.376;2023-06-14T15:40:39;25.00;75.20